Terminal Aerodrome Forecast
Issued by NWS Oklahoma City, OK

Home | Current Version | Previous Version | Text Only | Print | Product List | Glossary On
Versions: 1 2 3 4 5 6 7 8 9 10 11 12 13
000
FTUS44 KOUN 221728
TAFOUN
TAF
KOUN 221728Z 2218/2318 06009KT P6SM BKN025
      TEMPO 2218/2219 SCT130 SCT250
     FM222200 12012KT P6SM BKN010
     FM230300 15014KT 5SM BR BKN008=

USA.gov is the U.S. government's official web portal to all federal, state and local government web resources and services.